createdAt,value
2018-12-12T00:00:33.970Z,22.40
2018-12-12T00:03:11.664Z,21.23
2018-12-12T00:05:49.261Z,26.07
2018-12-12T00:08:24.604Z,26.90
2018-12-12T00:11:01.464Z,22.40
2018-12-12T00:13:38.361Z,19.80
2018-12-12T00:16:14.221Z,26.17
2018-12-12T00:18:48.935Z,36.27
2018-12-12T00:21:28.125Z,24.57
2018-12-12T00:24:03.756Z,20.47
2018-12-12T00:26:40.142Z,21.40
2018-12-12T00:29:15.462Z,21.00
2018-12-12T00:31:51.912Z,23.00
2018-12-12T00:34:27.183Z,21.87
2018-12-12T00:37:00.782Z,24.90
2018-12-12T00:39:36.502Z,20.50
2018-12-12T00:42:13.121Z,26.50
2018-12-12T00:44:51.489Z,17.03
2018-12-12T00:47:27.439Z,20.53
2018-12-12T00:50:08.288Z,21.13
2018-12-12T00:52:43.599Z,18.67
2018-12-12T00:55:20.233Z,23.33
2018-12-12T00:57:55.671Z,22.73
2018-12-12T01:00:33.781Z,21.87
2018-12-12T01:03:17.322Z,20.47
2018-12-12T01:05:54.959Z,20.30
2018-12-12T01:08:31.190Z,20.40
2018-12-12T01:11:11.671Z,25.00
2018-12-12T01:13:47.805Z,26.03
2018-12-12T01:16:24.015Z,23.47
2018-12-12T01:19:00.471Z,20.73
2018-12-12T01:21:40.707Z,26.37
2018-12-12T01:24:16.132Z,26.27
2018-12-12T01:26:57.186Z,28.83
2018-12-12T01:29:32.246Z,22.90
2018-12-12T01:32:09.644Z,23.90
2018-12-12T01:34:44.815Z,24.67
2018-12-12T01:37:23.224Z,22.20
2018-12-12T01:39:59.328Z,23.67
2018-12-12T01:42:34.632Z,20.67
2018-12-12T01:45:10.807Z,23.07
2018-12-12T01:47:46.844Z,26.17
2018-12-12T01:50:28.148Z,20.47
2018-12-12T01:53:04.040Z,16.87
2018-12-12T01:55:39.760Z,25.30
2018-12-12T02:01:24.649Z,20.93
2018-12-12T02:03:59.988Z,22.00
2018-12-12T02:06:35.198Z,19.90
2018-12-12T02:09:13.316Z,22.20
2018-12-12T02:11:49.989Z,20.17
2018-12-12T02:14:41.398Z,18.57
2018-12-12T02:17:29.508Z,27.37
2018-12-12T02:20:06.090Z,16.97
2018-12-12T02:22:43.850Z,16.53
2018-12-12T02:25:20.680Z,21.90
2018-12-12T02:28:01.739Z,26.87
2018-12-12T02:30:44.999Z,18.47
2018-12-12T02:33:21.288Z,26.37
2018-12-12T02:35:59.197Z,23.80
2018-12-12T02:38:34.850Z,21.63
2018-12-12T02:41:10.110Z,21.50
2018-12-12T02:43:47.790Z,24.97
2018-12-12T02:46:24.585Z,31.60
2018-12-12T02:49:01.748Z,28.60
2018-12-12T02:51:38.210Z,17.20
2018-12-12T02:54:14.231Z,26.13
2018-12-12T02:56:49.803Z,24.33
2018-12-12T02:59:25.589Z,24.20
2018-12-12T03:02:04.031Z,19.13
2018-12-12T03:04:40.743Z,24.20
2018-12-12T03:07:16.068Z,21.37
2018-12-12T03:09:53.583Z,22.00
2018-12-12T03:12:29.222Z,28.80
2018-12-12T03:15:06.480Z,22.37
2018-12-12T03:17:42.031Z,22.37
2018-12-12T03:20:19.293Z,26.17
2018-12-12T03:22:53.946Z,28.67
2018-12-12T03:25:32.491Z,23.47
2018-12-12T03:28:07.537Z,22.57
2018-12-12T03:30:43.725Z,20.17
2018-12-12T03:33:20.251Z,25.83
2018-12-12T03:35:57.929Z,24.43
2018-12-12T03:41:32.737Z,22.60
2018-12-12T03:44:08.933Z,24.67
2018-12-12T03:46:45.231Z,23.57
2018-12-12T03:49:23.766Z,23.80
2018-12-12T03:51:59.242Z,27.63
2018-12-12T03:54:33.914Z,28.37
2018-12-12T03:57:08.566Z,23.77
2018-12-12T03:59:44.863Z,28.33
2018-12-12T04:02:25.282Z,27.13
2018-12-12T04:05:03.616Z,22.07
2018-12-12T04:07:40.669Z,26.83
2018-12-12T04:10:17.253Z,29.17
2018-12-12T04:12:52.109Z,27.93
2018-12-12T04:15:28.837Z,25.97
2018-12-12T04:18:06.745Z,33.57
2018-12-12T04:20:44.545Z,39.40
2018-12-12T04:23:20.019Z,26.40
2018-12-12T04:25:57.358Z,25.10
2018-12-12T04:28:31.873Z,29.67
2018-12-12T04:31:07.202Z,34.67
2018-12-12T04:33:42.782Z,26.57
2018-12-12T04:36:18.675Z,31.90
2018-12-12T04:38:55.998Z,28.27
2018-12-12T04:41:30.692Z,25.63
2018-12-12T04:44:06.120Z,31.23
2018-12-12T04:46:42.129Z,28.63
2018-12-12T04:49:19.099Z,27.67
2018-12-12T04:52:07.287Z,27.23
2018-12-12T04:54:45.410Z,28.80
2018-12-12T04:57:25.447Z,33.60
2018-12-12T05:00:03.192Z,31.17
2018-12-12T05:02:39.437Z,30.73
2018-12-12T05:05:16.644Z,35.13
2018-12-12T05:07:53.213Z,25.50
2018-12-12T05:10:28.248Z,31.00
2018-12-12T05:13:05.825Z,31.80
2018-12-12T05:15:43.868Z,37.20
2018-12-12T05:18:25.606Z,23.27
2018-12-12T05:21:04.337Z,33.90
2018-12-12T05:23:40.848Z,41.40
2018-12-12T05:26:15.880Z,33.67
2018-12-12T05:29:00.359Z,39.80
2018-12-12T05:31:36.803Z,25.87
2018-12-12T05:34:12.301Z,39.17
2018-12-12T05:36:52.823Z,30.23
2018-12-12T05:39:33.463Z,27.10
2018-12-12T05:42:10.442Z,24.57
2018-12-12T05:44:49.122Z,33.03
2018-12-12T05:47:25.763Z,33.43
2018-12-12T05:50:01.206Z,36.60
2018-12-12T05:52:38.547Z,50.97
2018-12-12T05:55:13.378Z,33.93
2018-12-12T05:57:49.646Z,45.70
2018-12-12T06:00:24.819Z,36.90
2018-12-12T06:03:02.408Z,32.93
2018-12-12T06:05:43.486Z,33.50
2018-12-12T06:08:22.716Z,32.60
2018-12-12T06:10:59.786Z,30.10
2018-12-12T06:13:36.375Z,39.47
2018-12-12T06:16:12.178Z,33.00
2018-12-12T06:18:52.603Z,31.90
2018-12-12T06:21:33.076Z,34.70
2018-12-12T06:24:11.816Z,37.63
2018-12-12T06:26:49.017Z,40.07
2018-12-12T06:29:25.935Z,44.10
2018-12-12T06:32:03.806Z,36.43
2018-12-12T06:34:42.121Z,39.73
2018-12-12T06:37:30.235Z,51.63
2018-12-12T06:40:06.277Z,47.17
2018-12-12T06:42:53.683Z,52.73
2018-12-12T06:45:30.380Z,43.77
2018-12-12T06:48:07.908Z,57.20
2018-12-12T06:50:42.723Z,49.17
2018-12-12T06:53:20.654Z,55.50
2018-12-12T06:55:57.489Z,64.20
2018-12-12T06:58:39.657Z,60.57
2018-12-12T07:01:14.347Z,60.30
2018-12-12T07:03:52.213Z,62.90
2018-12-12T07:06:29.619Z,46.80
2018-12-12T07:09:10.688Z,56.03
2018-12-12T07:11:45.549Z,55.33
2018-12-12T07:14:22.629Z,52.27
2018-12-12T07:16:58.088Z,47.23
2018-12-12T07:19:33.075Z,48.53
2018-12-12T07:22:08.255Z,45.10
2018-12-12T07:24:42.780Z,46.73
2018-12-12T07:27:19.061Z,57.17
2018-12-12T07:29:56.242Z,52.03
2018-12-12T07:32:30.905Z,52.43
2018-12-12T07:35:07.854Z,45.93
2018-12-12T07:37:43.597Z,44.63
2018-12-12T07:40:20.623Z,45.67
2018-12-12T07:45:57.252Z,40.60
2018-12-12T07:51:47.985Z,53.20
2018-12-12T07:57:35.614Z,63.73
2018-12-12T08:00:09.937Z,62.07
2018-12-12T08:02:43.486Z,57.53
2018-12-12T08:05:16.664Z,57.33
2018-12-12T08:07:55.477Z,56.50
2018-12-12T08:10:30.522Z,60.53
2018-12-12T08:13:16.163Z,56.47
2018-12-12T08:15:50.287Z,51.40
2018-12-12T08:18:30.179Z,47.20
2018-12-12T08:21:06.240Z,62.27
2018-12-12T08:23:38.982Z,69.10
2018-12-12T08:26:12.572Z,59.60
2018-12-12T08:28:45.855Z,55.13
2018-12-12T08:31:19.400Z,47.00
2018-12-12T08:33:52.600Z,45.87
2018-12-12T08:36:27.673Z,49.37
2018-12-12T08:39:00.923Z,45.30
2018-12-12T08:41:36.514Z,46.13
2018-12-12T08:44:09.558Z,43.20
2018-12-12T08:46:42.884Z,40.57
2018-12-12T08:49:18.766Z,45.07
2018-12-12T08:51:52.432Z,35.40
2018-12-12T08:54:28.753Z,38.27
2018-12-12T08:57:08.996Z,37.13
2018-12-12T08:59:44.919Z,36.20
2018-12-12T09:02:20.076Z,35.53
2018-12-12T09:04:56.101Z,41.33
2018-12-12T09:07:28.637Z,32.97
2018-12-12T09:10:14.558Z,33.97
2018-12-12T09:12:49.607Z,35.57
2018-12-12T09:15:22.946Z,36.57
2018-12-12T09:17:58.092Z,33.27
2018-12-12T09:20:33.399Z,32.70
2018-12-12T09:23:06.522Z,39.30
2018-12-12T09:25:41.721Z,31.00
2018-12-12T09:28:20.618Z,35.27
2018-12-12T09:30:59.071Z,34.60
2018-12-12T09:33:49.059Z,33.27
2018-12-12T09:36:22.539Z,35.00
2018-12-12T09:38:57.610Z,32.40
2018-12-12T09:41:33.579Z,29.93
2018-12-12T09:44:07.056Z,31.97
2018-12-12T09:46:43.116Z,27.53
2018-12-12T09:49:16.204Z,32.40
2018-12-12T09:51:57.969Z,32.57
2018-12-12T09:54:35.709Z,33.63
2018-12-12T09:57:10.940Z,25.67
2018-12-12T09:59:46.613Z,30.73
2018-12-12T10:02:20.913Z,33.03
2018-12-12T10:04:54.156Z,28.70
2018-12-12T10:07:35.531Z,27.90
2018-12-12T10:10:08.329Z,34.80
2018-12-12T10:12:44.198Z,30.17
2018-12-12T10:15:17.323Z,31.73
2018-12-12T10:17:52.326Z,25.77
2018-12-12T10:20:26.184Z,22.87
2018-12-12T10:23:07.960Z,25.70
2018-12-12T10:25:40.860Z,24.37
2018-12-12T10:28:16.341Z,24.57
2018-12-12T10:30:51.682Z,23.00
2018-12-12T10:33:26.813Z,28.67
2018-12-12T10:36:00.907Z,30.67
2018-12-12T10:38:41.108Z,24.50
2018-12-12T10:41:14.853Z,25.77
2018-12-12T10:43:50.670Z,21.67
2018-12-12T10:46:24.444Z,23.20
2018-12-12T10:49:03.439Z,20.70
2018-12-12T10:51:37.782Z,22.67
2018-12-12T10:54:12.890Z,25.80
2018-12-12T10:56:49.034Z,24.33
2018-12-12T10:59:25.573Z,23.93
2018-12-12T11:02:05.834Z,21.30
2018-12-12T11:04:41.767Z,25.87
2018-12-12T11:07:16.844Z,22.50
2018-12-12T11:09:58.091Z,24.73
2018-12-12T11:12:33.953Z,25.73
2018-12-12T11:15:14.950Z,23.00
2018-12-12T11:17:48.848Z,26.20
2018-12-12T11:20:23.812Z,23.23
2018-12-12T11:22:58.871Z,24.83
2018-12-12T11:25:33.994Z,26.30
2018-12-12T11:28:12.918Z,22.00
2018-12-12T11:30:47.524Z,24.33
2018-12-12T11:33:27.499Z,25.30
2018-12-12T11:36:00.541Z,19.83
2018-12-12T11:38:33.951Z,18.53
2018-12-12T11:41:07.555Z,24.83
2018-12-12T11:43:40.666Z,22.00
2018-12-12T11:46:21.087Z,24.40
2018-12-12T11:48:56.622Z,24.80
2018-12-12T11:51:31.307Z,19.73
2018-12-12T11:54:10.482Z,21.83
2018-12-12T11:56:55.693Z,20.23
2018-12-12T11:59:28.883Z,20.73
2018-12-12T12:02:05.271Z,17.07
2018-12-12T12:04:38.242Z,19.70
2018-12-12T12:07:11.784Z,17.77
2018-12-12T12:09:44.878Z,20.83
2018-12-12T12:15:23.957Z,22.33
2018-12-12T12:17:56.788Z,21.17
2018-12-12T12:20:30.219Z,18.60
2018-12-12T12:23:04.629Z,19.93
2018-12-12T12:25:37.486Z,19.30
2018-12-12T12:28:13.789Z,21.27
2018-12-12T12:30:46.865Z,21.43
2018-12-12T12:33:21.215Z,18.73
2018-12-12T12:35:57.203Z,17.37
2018-12-12T12:38:30.113Z,17.87
2018-12-12T12:41:17.553Z,16.30
2018-12-12T12:43:52.541Z,18.53
2018-12-12T12:46:26.091Z,16.00
2018-12-12T12:48:59.672Z,15.37
2018-12-12T12:51:32.877Z,13.00
2018-12-12T12:54:07.205Z,12.10
2018-12-12T12:56:48.351Z,14.53
2018-12-12T12:59:22.360Z,11.17
2018-12-12T13:02:01.974Z,10.20
2018-12-12T13:04:36.443Z,12.63
2018-12-12T13:07:15.674Z,13.13
2018-12-12T13:09:51.441Z,14.70
2018-12-12T13:12:27.164Z,17.00
2018-12-12T13:15:03.196Z,14.70
2018-12-12T13:17:39.145Z,14.40
2018-12-12T13:20:12.360Z,15.93
2018-12-12T13:22:48.515Z,14.90
2018-12-12T13:25:21.688Z,13.97
2018-12-12T13:27:55.015Z,16.20
2018-12-12T13:30:27.783Z,17.07
2018-12-12T13:33:01.495Z,15.37
2018-12-12T13:35:37.258Z,15.97
2018-12-12T13:38:11.247Z,15.17
2018-12-12T13:40:50.512Z,17.00
2018-12-12T13:43:22.765Z,20.60
2018-12-12T13:45:58.532Z,16.60
2018-12-12T13:48:33.400Z,18.27
2018-12-12T13:51:09.833Z,20.00
2018-12-12T13:53:44.874Z,22.30
2018-12-12T13:56:26.710Z,37.67
2018-12-12T13:59:01.894Z,21.73
2018-12-12T14:01:34.629Z,22.30
2018-12-12T14:07:10.182Z,17.43
2018-12-12T14:09:43.676Z,17.67
2018-12-12T14:12:17.571Z,20.00
2018-12-12T14:14:57.113Z,22.30
2018-12-12T14:17:32.251Z,21.77
2018-12-12T14:20:08.506Z,19.80
2018-12-12T14:22:41.789Z,23.07
2018-12-12T14:25:15.376Z,51.10
2018-12-12T14:27:48.461Z,27.50
2018-12-12T14:30:21.777Z,31.43
2018-12-12T14:32:55.116Z,25.87
2018-12-12T14:35:30.484Z,28.03
2018-12-12T14:38:04.456Z,26.43
2018-12-12T14:40:37.514Z,28.90
2018-12-12T14:43:11.566Z,25.33
2018-12-12T14:45:45.079Z,28.93
2018-12-12T14:48:18.757Z,24.50
2018-12-12T14:50:54.039Z,26.60
2018-12-12T14:53:29.541Z,25.30
2018-12-12T14:56:04.973Z,25.43
2018-12-12T14:58:39.960Z,32.23
2018-12-12T15:01:13.347Z,32.83
2018-12-12T15:03:46.316Z,28.93
2018-12-12T15:06:19.824Z,32.10
2018-12-12T15:08:52.464Z,34.43
2018-12-12T15:11:25.772Z,34.93
2018-12-12T15:14:01.402Z,35.43
2018-12-12T15:16:43.434Z,31.53
2018-12-12T15:19:16.546Z,36.77
2018-12-12T15:21:53.578Z,38.53
2018-12-12T15:24:26.851Z,36.37
2018-12-12T15:26:59.489Z,34.73
2018-12-12T15:29:33.110Z,41.83
2018-12-12T15:32:08.076Z,37.13
2018-12-12T15:34:42.377Z,36.47
2018-12-12T15:37:15.491Z,36.03
2018-12-12T15:39:52.988Z,35.20
2018-12-12T15:42:26.115Z,35.90
2018-12-12T15:44:59.782Z,34.57
2018-12-12T15:47:37.276Z,37.70
2018-12-12T15:50:13.647Z,38.37
2018-12-12T15:52:47.352Z,36.17
2018-12-12T15:55:23.132Z,38.57
2018-12-12T15:57:56.411Z,45.70
2018-12-12T16:00:36.857Z,34.87
2018-12-12T16:03:13.972Z,34.83
2018-12-12T16:05:50.029Z,33.43
2018-12-12T16:08:27.662Z,35.20
2018-12-12T16:14:13.875Z,38.00
2018-12-12T16:16:49.245Z,36.27
2018-12-12T16:19:24.715Z,42.20
2018-12-12T16:21:58.417Z,37.43
2018-12-12T16:24:31.439Z,37.00
2018-12-12T16:27:17.444Z,36.90
2018-12-12T16:29:53.727Z,38.80
2018-12-12T16:32:29.469Z,37.50
2018-12-12T16:35:06.689Z,36.33
2018-12-12T16:40:50.137Z,38.03
2018-12-12T16:46:30.874Z,38.40
2018-12-12T16:49:18.810Z,38.73
2018-12-12T16:51:54.362Z,38.13
2018-12-12T16:54:27.026Z,35.97
2018-12-12T16:57:02.844Z,35.97
2018-12-12T16:59:36.372Z,39.77
2018-12-12T17:02:11.152Z,37.67
2018-12-12T17:04:43.966Z,39.50
2018-12-12T17:07:19.986Z,36.00
2018-12-12T17:09:53.766Z,36.57
2018-12-12T17:12:28.217Z,32.37
2018-12-12T17:15:03.855Z,31.60
2018-12-12T17:17:37.266Z,39.27
2018-12-12T17:20:12.455Z,31.27
2018-12-12T17:22:49.398Z,39.90
2018-12-12T17:25:24.587Z,49.80
2018-12-12T17:28:00.734Z,31.77
2018-12-12T17:30:33.608Z,28.93
2018-12-12T17:33:11.103Z,29.17
2018-12-12T17:35:48.077Z,31.90
2018-12-12T17:38:23.234Z,27.10
2018-12-12T17:40:56.944Z,26.17
2018-12-12T17:43:32.932Z,31.67
2018-12-12T17:46:06.243Z,28.50
2018-12-12T17:48:41.797Z,32.40
2018-12-12T17:51:15.814Z,32.53
2018-12-12T17:53:49.140Z,31.87
2018-12-12T17:56:24.495Z,30.63
2018-12-12T17:59:00.556Z,28.37
2018-12-12T18:01:33.867Z,31.90
2018-12-12T18:04:11.217Z,26.60
2018-12-12T18:06:49.061Z,24.90
2018-12-12T18:09:23.412Z,26.23
2018-12-12T18:11:56.806Z,24.03
2018-12-12T18:14:30.466Z,26.33
2018-12-12T18:17:07.591Z,25.00
2018-12-12T18:19:46.630Z,21.57
2018-12-12T18:22:22.567Z,19.73
2018-12-12T18:24:58.052Z,23.77
2018-12-12T18:27:31.574Z,20.17
2018-12-12T18:30:06.317Z,23.10
2018-12-12T18:32:43.253Z,23.20
2018-12-12T18:35:41.635Z,22.97
2018-12-12T18:38:20.894Z,22.90
2018-12-12T18:40:56.177Z,24.87
2018-12-12T18:43:38.685Z,25.63
2018-12-12T18:46:11.493Z,22.30
2018-12-12T18:48:57.270Z,30.17
2018-12-12T18:51:33.959Z,24.33
2018-12-12T18:57:26.216Z,27.53
2018-12-12T19:00:08.194Z,29.70
2018-12-12T19:02:44.652Z,28.10
2018-12-12T19:05:20.716Z,25.53
2018-12-12T19:08:00.248Z,36.67
2018-12-12T19:10:37.935Z,27.07
2018-12-12T19:13:11.884Z,29.37
2018-12-12T19:15:47.513Z,25.13
2018-12-12T19:18:27.556Z,27.30
2018-12-12T19:21:03.506Z,25.87
2018-12-12T19:23:37.176Z,22.87
2018-12-12T19:26:20.158Z,36.13
2018-12-12T19:29:06.579Z,23.80
2018-12-12T19:31:42.112Z,27.73
2018-12-12T19:34:19.836Z,26.10
2018-12-12T19:36:58.864Z,23.73
2018-12-12T19:39:35.608Z,27.87
2018-12-12T19:45:21.123Z,34.70
2018-12-12T19:51:06.703Z,25.33
2018-12-12T19:53:44.569Z,23.93
2018-12-12T19:56:23.468Z,25.80
2018-12-12T19:59:02.361Z,26.17
2018-12-12T20:01:45.953Z,27.30
2018-12-12T20:04:22.240Z,28.10
2018-12-12T20:10:06.907Z,28.20
2018-12-12T20:12:47.355Z,31.03
2018-12-12T20:18:46.259Z,32.53
2018-12-12T20:24:36.972Z,32.67
2018-12-12T20:30:19.015Z,35.50
2018-12-12T20:32:55.972Z,35.53
2018-12-12T20:38:41.616Z,39.00
2018-12-12T20:41:28.269Z,37.40
2018-12-12T20:44:07.097Z,31.00
2018-12-12T20:49:54.794Z,30.00
2018-12-12T20:52:30.097Z,26.80
2018-12-12T20:55:09.166Z,23.70
2018-12-12T20:57:51.528Z,26.30
2018-12-12T21:00:38.107Z,26.27
2018-12-12T21:03:16.246Z,28.17
2018-12-12T21:05:54.611Z,27.57
2018-12-12T21:08:35.756Z,25.57
2018-12-12T21:11:11.667Z,24.83
2018-12-12T21:19:03.041Z,27.27
2018-12-12T21:21:40.213Z,26.63
2018-12-12T21:24:16.133Z,26.33
2018-12-12T21:26:52.585Z,25.23
2018-12-12T21:29:30.453Z,21.67
2018-12-12T21:32:08.177Z,22.87
2018-12-12T21:34:45.263Z,27.73
2018-12-12T21:37:21.067Z,24.30
2018-12-12T21:39:55.502Z,23.17
2018-12-12T21:42:30.319Z,24.37
2018-12-12T21:45:04.971Z,23.73
2018-12-12T21:47:44.416Z,22.30
2018-12-12T21:53:20.017Z,25.20
2018-12-12T21:55:56.606Z,23.17
2018-12-12T21:58:33.674Z,22.10
2018-12-12T22:01:10.294Z,22.63
2018-12-12T22:03:52.818Z,21.97
2018-12-12T22:06:31.193Z,27.20
2018-12-12T22:09:12.627Z,22.23
2018-12-12T22:11:51.815Z,21.87
2018-12-12T22:14:32.979Z,24.87
2018-12-12T22:17:10.951Z,21.40
2018-12-12T22:19:52.526Z,22.93
2018-12-12T22:27:38.819Z,23.63
2018-12-12T22:30:22.976Z,23.50
2018-12-12T22:36:02.024Z,21.67
2018-12-12T22:41:38.245Z,22.70
2018-12-12T22:44:20.080Z,22.40
2018-12-12T22:46:56.790Z,20.43
2018-12-12T22:49:33.606Z,21.17
2018-12-12T22:52:14.862Z,19.97
2018-12-12T22:55:03.453Z,20.57
2018-12-12T22:57:45.637Z,24.53
2018-12-12T23:00:28.979Z,21.97
2018-12-12T23:03:10.916Z,23.50
2018-12-12T23:05:59.387Z,21.23
2018-12-12T23:08:37.301Z,20.40
2018-12-12T23:11:12.586Z,21.97
2018-12-12T23:13:49.931Z,21.20
2018-12-12T23:16:29.090Z,22.17
2018-12-12T23:19:05.945Z,20.37
2018-12-12T23:21:41.060Z,18.97
2018-12-12T23:24:17.927Z,22.23
2018-12-12T23:29:53.830Z,19.53
2018-12-12T23:32:30.561Z,20.40
2018-12-12T23:35:05.616Z,24.57
2018-12-12T23:37:43.439Z,19.37
2018-12-12T23:40:18.226Z,21.37
2018-12-12T23:43:01.021Z,25.20
2018-12-12T23:45:37.570Z,21.90
2018-12-12T23:48:12.249Z,21.83
2018-12-12T23:50:49.247Z,21.17
2018-12-12T23:53:23.149Z,19.53
2018-12-12T23:56:00.621Z,23.10
2018-12-12T23:58:34.820Z,21.87
